Time,TemperatureF,DewpointF,PressureIn,WindDirection,WindDirectionDegrees,WindSpeedMPH,WindSpeedGustMPH,Humidity,HourlyPrecipIn,Conditions,Clouds,dailyrainin,SoftwareType,DateUTC
2013-07-12 00:00:00,65.8,62.5,29.98,NNW,342,0.0,5.0,89,0.00,,BKN055,0.00,VWS V14.00,2013-07-12 04:00:00,
2013-07-12 00:01:00,65.8,62.5,29.98,NNW,342,0.0,5.0,89,0.00,,BKN055,0.00,VWS V14.00,2013-07-12 04:01:00,
2013-07-12 00:10:00,65.1,62.4,29.98,NNW,342,0.0,1.0,91,0.00,,BKN055,0.00,VWS V14.00,2013-07-12 04:10:00,
2013-07-12 00:11:00,65.1,62.4,29.98,NNW,342,0.0,1.0,91,0.00,,BKN055,0.00,VWS V14.00,2013-07-12 04:11:00,
2013-07-12 00:20:00,64.5,62.1,29.98,NNW,342,0.0,0.0,92,0.00,,BKN055,0.00,VWS V14.00,2013-07-12 04:20:00,
2013-07-12 00:21:00,64.5,62.1,29.98,NNW,342,0.0,0.0,92,0.00,,BKN055,0.00,VWS V14.00,2013-07-12 04:21:00,
2013-07-12 00:30:00,64.0,61.9,29.98,NNW,341,0.0,3.0,93,0.00,,BKN055,0.00,VWS V14.00,2013-07-12 04:30:00,
2013-07-12 00:31:00,64.0,61.9,29.98,NNW,341,0.0,3.0,93,0.00,,BKN055,0.00,VWS V14.00,2013-07-12 04:31:00,
2013-07-12 00:40:00,63.5,62.0,29.98,NNW,342,0.0,3.0,95,0.00,,BKN055,0.00,VWS V14.00,2013-07-12 04:40:00,
2013-07-12 00:41:00,63.5,62.0,29.98,NNW,342,0.0,3.0,95,0.00,,BKN055,0.00,VWS V14.00,2013-07-12 04:41:00,
2013-07-12 00:50:00,63.2,61.8,29.99,NNW,342,0.0,2.0,95,0.00,,BKN055,0.00,VWS V14.00,2013-07-12 04:50:00,
2013-07-12 00:51:00,63.2,61.8,29.99,NNW,342,0.0,2.0,95,0.00,,BKN055,0.00,VWS V14.00,2013-07-12 04:51:00,
2013-07-12 01:00:00,62.9,61.5,29.99,NNW,339,2.0,3.0,95,0.00,,BKN055,0.00,VWS V14.00,2013-07-12 05:00:00,
2013-07-12 01:01:00,62.9,61.5,29.99,NNW,339,2.0,3.0,95,0.00,,BKN055,0.00,VWS V14.00,2013-07-12 05:01:00,
2013-07-12 01:10:00,62.6,61.2,29.99,NNW,334,0.0,4.0,95,0.00,,BKN055,0.00,VWS V14.00,2013-07-12 05:10:00,
2013-07-12 01:11:00,62.6,61.2,29.99,NNW,334,0.0,4.0,95,0.00,,BKN055,0.00,VWS V14.00,2013-07-12 05:11:00,
2013-07-12 01:20:00,62.4,61.2,29.99,NNW,331,5.0,5.0,96,0.00,,BKN055,0.00,VWS V14.00,2013-07-12 05:20:00,
2013-07-12 01:21:00,62.4,61.2,29.99,NNW,331,5.0,5.0,96,0.00,,BKN055,0.00,VWS V14.00,2013-07-12 05:21:00,
2013-07-12 01:30:00,62.2,61.0,29.99,NNW,339,2.0,5.0,96,0.00,,BKN055,0.00,VWS V14.00,2013-07-12 05:30:00,
2013-07-12 01:31:00,62.2,61.0,29.99,NNW,339,2.0,5.0,96,0.00,,BKN055,0.00,VWS V14.00,2013-07-12 05:31:00,
2013-07-12 01:40:00,62.0,60.8,29.99,NNW,348,3.0,4.0,96,0.00,,BKN055,0.00,VWS V14.00,2013-07-12 05:40:00,
2013-07-12 01:41:00,62.0,60.8,29.99,NNW,348,3.0,4.0,96,0.00,,BKN055,0.00,VWS V14.00,2013-07-12 05:41:00,
2013-07-12 01:50:00,61.8,60.7,30.00,NNW,339,4.0,4.0,96,0.00,,BKN055,0.00,VWS V14.00,2013-07-12 05:50:00,
2013-07-12 01:51:00,61.8,60.7,30.00,NNW,339,4.0,4.0,96,0.00,,BKN055,0.00,VWS V14.00,2013-07-12 05:51:00,
2013-07-12 02:00:00,61.5,60.3,30.00,NNW,341,0.0,5.0,96,0.00,,BKN055,0.00,VWS V14.00,2013-07-12 06:00:00,
2013-07-12 02:01:00,61.5,60.3,30.00,NNW,341,0.0,5.0,96,0.00,,BKN055,0.00,VWS V14.00,2013-07-12 06:01:00,
2013-07-12 02:10:00,61.2,60.0,30.00,NNW,331,2.0,4.0,96,0.00,,BKN055,0.00,VWS V14.00,2013-07-12 06:10:00,
2013-07-12 02:11:00,61.2,60.0,30.00,NNW,331,2.0,4.0,96,0.00,,BKN055,0.00,VWS V14.00,2013-07-12 06:11:00,
2013-07-12 02:20:00,61.0,59.8,29.99,NNW,342,3.0,4.0,96,0.00,,BKN055,0.00,VWS V14.00,2013-07-12 06:20:00,
2013-07-12 02:21:00,61.0,59.9,29.99,NNW,342,3.0,4.0,96,0.00,,BKN055,0.00,VWS V14.00,2013-07-12 06:21:00,
2013-07-12 02:30:00,60.8,60.0,29.99,NNW,341,2.0,4.0,97,0.00,,BKN055,0.00,VWS V14.00,2013-07-12 06:30:00,
2013-07-12 02:31:00,60.8,60.0,29.99,NNW,341,2.0,4.0,97,0.00,,BKN055,0.00,VWS V14.00,2013-07-12 06:31:00,
2013-07-12 02:40:00,60.5,59.7,29.99,NNW,340,0.0,3.0,97,0.00,,BKN055,0.00,VWS V14.00,2013-07-12 06:40:00,
2013-07-12 02:41:00,60.5,59.7,29.99,NNW,340,0.0,3.0,97,0.00,,BKN055,0.00,VWS V14.00,2013-07-12 06:41:00,
2013-07-12 02:50:00,60.3,59.5,29.99,NNW,340,0.0,4.0,97,0.00,,BKN055,0.00,VWS V14.00,2013-07-12 06:50:00,
2013-07-12 02:51:00,60.3,59.5,29.99,NNW,340,0.0,4.0,97,0.00,,BKN055,0.00,VWS V14.00,2013-07-12 06:51:00,
2013-07-12 03:00:00,60.1,59.2,29.99,NNW,334,0.0,3.0,97,0.00,,BKN055,0.00,VWS V14.00,2013-07-12 07:00:00,
2013-07-12 03:01:00,60.1,59.2,29.99,NNW,334,0.0,3.0,97,0.00,,BKN055,0.00,VWS V14.00,2013-07-12 07:01:00,
2013-07-12 03:10:00,59.9,59.0,29.99,NNW,343,0.0,4.0,97,0.00,,BKN055,0.00,VWS V14.00,2013-07-12 07:10:00,
2013-07-12 03:11:00,59.9,59.0,29.99,NNW,343,0.0,4.0,97,0.00,,BKN055,0.00,VWS V14.00,2013-07-12 07:11:00,
2013-07-12 03:20:00,59.7,59.1,29.99,North,360,2.0,3.0,98,0.00,,BKN055,0.00,VWS V14.00,2013-07-12 07:20:00,
2013-07-12 03:21:00,59.7,59.1,29.99,North,360,2.0,3.0,98,0.00,,BKN055,0.00,VWS V14.00,2013-07-12 07:21:00,
2013-07-12 03:30:00,59.6,59.0,30.00,North,9,0.0,3.0,98,0.00,,BKN055,0.00,VWS V14.00,2013-07-12 07:30:00,
2013-07-12 03:31:00,59.6,59.0,30.00,North,9,0.0,3.0,98,0.00,,BKN055,0.00,VWS V14.00,2013-07-12 07:31:00,
2013-07-12 03:40:00,59.5,58.9,29.99,NNW,339,0.0,3.0,98,0.00,,BKN055,0.00,VWS V14.00,2013-07-12 07:40:00,
2013-07-12 03:41:00,59.5,58.9,29.99,NNW,339,0.0,3.0,98,0.00,,BKN055,0.00,VWS V14.00,2013-07-12 07:41:00,
2013-07-12 03:50:00,59.3,58.7,29.99,NNW,346,0.0,2.0,98,0.00,,BKN055,0.00,VWS V14.00,2013-07-12 07:50:00,
2013-07-12 03:51:00,59.3,58.7,29.99,NNW,346,0.0,2.0,98,0.00,,BKN055,0.00,VWS V14.00,2013-07-12 07:51:00,
2013-07-12 04:00:00,59.0,58.4,30.00,NNW,346,0.0,3.0,98,0.00,,BKN055,0.00,VWS V14.00,2013-07-12 08:00:00,
2013-07-12 04:01:00,59.0,58.4,30.00,NNW,346,0.0,3.0,98,0.00,,BKN055,0.00,VWS V14.00,2013-07-12 08:01:00,
2013-07-12 04:10:00,59.0,58.4,29.99,North,10,2.0,4.0,98,0.00,,BKN055,0.00,VWS V14.00,2013-07-12 08:10:00,
2013-07-12 04:11:00,59.0,58.4,29.99,North,10,2.0,4.0,98,0.00,,BKN055,0.00,VWS V14.00,2013-07-12 08:11:00,
2013-07-12 04:20:00,59.0,58.4,29.99,North,5,0.0,4.0,98,0.00,,BKN055,0.00,VWS V14.00,2013-07-12 08:20:00,
2013-07-12 04:21:00,59.0,58.4,29.99,North,5,0.0,4.0,98,0.00,,BKN055,0.00,VWS V14.00,2013-07-12 08:21:00,
2013-07-12 04:30:00,59.0,58.4,29.99,North,355,0.0,3.0,98,0.00,,BKN055,0.00,VWS V14.00,2013-07-12 08:30:00,
2013-07-12 04:31:00,59.0,58.4,29.99,North,355,0.0,3.0,98,0.00,,BKN055,0.00,VWS V14.00,2013-07-12 08:31:00,
2013-07-12 04:40:00,59.0,58.4,30.00,North,349,3.0,4.0,98,0.00,,BKN055,0.00,VWS V14.00,2013-07-12 08:40:00,
2013-07-12 04:41:00,59.0,58.4,30.00,North,349,3.0,4.0,98,0.00,,BKN055,0.00,VWS V14.00,2013-07-12 08:41:00,
2013-07-12 04:50:00,59.0,58.4,30.00,North,355,2.0,4.0,98,0.00,,BKN055,0.00,VWS V14.00,2013-07-12 08:50:00,
2013-07-12 04:51:00,59.0,58.4,30.00,North,355,2.0,4.0,98,0.00,,BKN055,0.00,VWS V14.00,2013-07-12 08:51:00,
2013-07-12 05:00:00,59.0,58.4,30.00,NW,323,0.0,4.0,98,0.00,,BKN055,0.00,VWS V14.00,2013-07-12 09:00:00,
2013-07-12 05:01:00,59.0,58.4,30.00,NW,323,0.0,4.0,98,0.00,,BKN055,0.00,VWS V14.00,2013-07-12 09:01:00,
2013-07-12 05:10:00,59.0,58.4,30.00,NNW,336,0.0,3.0,98,0.00,,BKN055,0.00,VWS V14.00,2013-07-12 09:10:00,
2013-07-12 05:11:00,59.0,58.4,30.00,NNW,336,0.0,3.0,98,0.00,,BKN055,0.00,VWS V14.00,2013-07-12 09:11:00,
2013-07-12 05:20:00,59.0,58.4,30.00,NNW,346,0.0,4.0,98,0.00,,BKN055,0.00,VWS V14.00,2013-07-12 09:20:00,
2013-07-12 05:21:00,59.0,58.4,30.00,NNW,346,0.0,4.0,98,0.00,,BKN055,0.00,VWS V14.00,2013-07-12 09:21:00,
2013-07-12 05:30:00,59.0,58.4,30.00,NNW,345,0.0,0.0,98,0.00,,BKN055,0.00,VWS V14.00,2013-07-12 09:30:00,
2013-07-12 05:31:00,59.0,58.4,30.00,NNW,345,0.0,0.0,98,0.00,,BKN055,0.00,VWS V14.00,2013-07-12 09:31:00,
2013-07-12 05:40:00,58.8,58.0,30.01,North,349,0.0,0.0,97,0.00,,BKN055,0.00,VWS V14.00,2013-07-12 09:40:00,
2013-07-12 05:41:00,58.8,58.0,30.01,North,349,0.0,0.0,97,0.00,,BKN055,0.00,VWS V14.00,2013-07-12 09:41:00,
2013-07-12 05:50:00,58.5,57.7,30.01,North,349,0.0,0.0,97,0.00,,BKN055,0.00,VWS V14.00,2013-07-12 09:50:00,
2013-07-12 05:51:00,58.5,57.7,30.01,North,349,0.0,0.0,97,0.00,,BKN055,0.00,VWS V14.00,2013-07-12 09:51:00,
2013-07-12 06:00:00,58.3,57.7,30.01,NNW,345,0.0,4.0,98,0.00,,BKN055,0.00,VWS V14.00,2013-07-12 10:00:00,
2013-07-12 06:01:00,58.3,57.7,30.01,NNW,345,0.0,4.0,98,0.00,,BKN055,0.00,VWS V14.00,2013-07-12 10:01:00,
2013-07-12 06:10:00,58.3,57.7,30.01,WNW,301,3.0,4.0,98,0.00,,BKN055,0.00,VWS V14.00,2013-07-12 10:10:00,
2013-07-12 06:11:00,58.3,57.7,30.01,WNW,301,3.0,4.0,98,0.00,,BKN055,0.00,VWS V14.00,2013-07-12 10:11:00,
2013-07-12 06:20:00,58.4,57.8,30.03,North,355,0.0,4.0,98,0.00,,BKN055,0.00,VWS V14.00,2013-07-12 10:20:00,
2013-07-12 06:21:00,58.4,57.8,30.03,North,355,0.0,4.0,98,0.00,,BKN055,0.00,VWS V14.00,2013-07-12 10:21:00,
2013-07-12 06:30:00,58.4,57.8,30.03,ENE,65,0.0,3.0,98,0.00,,BKN055,0.00,VWS V14.00,2013-07-12 10:30:00,
2013-07-12 06:31:00,58.4,57.8,30.03,ENE,65,0.0,3.0,98,0.00,,BKN055,0.00,VWS V14.00,2013-07-12 10:31:00,
2013-07-12 06:40:00,58.2,57.6,30.03,ENE,65,0.0,1.0,98,0.00,,BKN055,0.00,VWS V14.00,2013-07-12 10:40:00,
2013-07-12 06:41:00,58.2,57.6,30.03,ENE,65,0.0,1.0,98,0.00,,BKN055,0.00,VWS V14.00,2013-07-12 10:41:00,
2013-07-12 06:50:00,58.2,57.6,30.03,ENE,65,0.0,0.0,98,0.00,,BKN055,0.00,VWS V14.00,2013-07-12 10:50:00,
2013-07-12 06:51:00,58.2,57.6,30.03,ENE,65,0.0,0.0,98,0.00,,BKN055,0.00,VWS V14.00,2013-07-12 10:51:00,
2013-07-12 07:00:00,58.4,57.8,30.03,NE,55,0.0,2.0,98,0.00,,BKN055,0.00,VWS V14.00,2013-07-12 11:00:00,
2013-07-12 07:01:00,58.4,57.8,30.03,NE,55,0.0,2.0,98,0.00,,BKN055,0.00,VWS V14.00,2013-07-12 11:01:00,
2013-07-12 07:10:00,58.6,58.0,30.04,NE,55,0.0,2.0,98,0.00,,BKN055,0.00,VWS V14.00,2013-07-12 11:10:00,
2013-07-12 07:11:00,58.6,58.0,30.04,NE,55,0.0,2.0,98,0.00,,BKN055,0.00,VWS V14.00,2013-07-12 11:11:00,
2013-07-12 07:20:00,59.0,58.4,30.04,NE,55,0.0,1.0,98,0.00,,BKN055,0.00,VWS V14.00,2013-07-12 11:20:00,
2013-07-12 07:21:00,59.0,58.4,30.04,NE,55,0.0,1.0,98,0.00,,BKN055,0.00,VWS V14.00,2013-07-12 11:21:00,
2013-07-12 07:30:00,59.3,59.0,30.04,NE,55,0.0,0.0,99,0.00,,BKN055,0.00,VWS V14.00,2013-07-12 11:30:00,
2013-07-12 07:31:00,59.3,59.0,30.04,NE,55,0.0,0.0,99,0.00,,BKN055,0.00,VWS V14.00,2013-07-12 11:31:00,
2013-07-12 07:40:00,60.0,59.4,30.04,NE,55,0.0,0.0,98,0.00,,BKN055,0.00,VWS V14.00,2013-07-12 11:40:00,
2013-07-12 07:41:00,60.0,59.4,30.04,NE,55,0.0,0.0,98,0.00,,BKN055,0.00,VWS V14.00,2013-07-12 11:41:00,
2013-07-12 07:50:00,60.7,60.1,30.04,NE,55,0.0,0.0,98,0.00,,BKN055,0.00,VWS V14.00,2013-07-12 11:50:00,
2013-07-12 07:51:00,60.7,60.1,30.04,NE,55,0.0,0.0,98,0.00,,BKN055,0.00,VWS V14.00,2013-07-12 11:51:00,
2013-07-12 08:00:00,61.4,60.5,30.05,NE,55,0.0,3.0,97,0.00,,BKN055,0.00,VWS V14.00,2013-07-12 12:00:00,
2013-07-12 08:01:00,61.4,60.5,30.05,NE,55,0.0,3.0,97,0.00,,BKN055,0.00,VWS V14.00,2013-07-12 12:01:00,
2013-07-12 08:10:00,62.2,60.8,30.05,NE,55,0.0,2.0,95,0.00,,BKN055,0.00,VWS V14.00,2013-07-12 12:10:00,
2013-07-12 08:11:00,62.2,60.8,30.05,NE,55,0.0,2.0,95,0.00,,BKN055,0.00,VWS V14.00,2013-07-12 12:11:00,
2013-07-12 08:20:00,63.0,61.2,30.05,NE,55,0.0,1.0,94,0.00,,BKN055,0.00,VWS V14.00,2013-07-12 12:20:00,
2013-07-12 08:21:00,63.0,61.2,30.05,NE,55,0.0,1.0,94,0.00,,BKN055,0.00,VWS V14.00,2013-07-12 12:21:00,
2013-07-12 08:30:00,64.1,61.4,30.05,NE,55,0.0,1.0,91,0.00,,BKN055,0.00,VWS V14.00,2013-07-12 12:30:00,
2013-07-12 08:31:00,64.1,61.4,30.05,NE,55,0.0,1.0,91,0.00,,BKN055,0.00,VWS V14.00,2013-07-12 12:31:00,
2013-07-12 08:40:00,65.3,62.6,30.05,North,360,0.0,3.0,91,0.00,,BKN055,0.00,VWS V14.00,2013-07-12 12:40:00,
2013-07-12 08:41:00,65.3,62.6,30.05,North,360,0.0,3.0,91,0.00,,BKN055,0.00,VWS V14.00,2013-07-12 12:41:00,
2013-07-12 08:50:00,66.3,63.0,30.06,North,360,0.0,3.0,89,0.00,,BKN055,0.00,VWS V14.00,2013-07-12 12:50:00,
2013-07-12 08:51:00,66.3,63.0,30.06,North,360,0.0,3.0,89,0.00,,BKN055,0.00,VWS V14.00,2013-07-12 12:51:00,
2013-07-12 09:00:00,67.2,63.2,30.06,NNW,344,0.0,3.0,87,0.00,,BKN055,0.00,VWS V14.00,2013-07-12 13:00:00,
2013-07-12 09:01:00,67.2,63.2,30.06,NNW,344,0.0,3.0,87,0.00,,BKN055,0.00,VWS V14.00,2013-07-12 13:01:00,
2013-07-12 09:10:00,68.1,63.8,30.06,NNW,327,0.0,4.0,86,0.00,,BKN055,0.00,VWS V14.00,2013-07-12 13:10:00,
2013-07-12 09:11:00,68.1,63.8,30.06,NNW,327,0.0,4.0,86,0.00,,BKN055,0.00,VWS V14.00,2013-07-12 13:11:00,
2013-07-12 09:20:00,69.5,64.1,30.06,ENE,72,0.0,2.0,83,0.00,,BKN055,0.00,VWS V14.00,2013-07-12 13:20:00,
2013-07-12 09:21:00,69.5,64.1,30.06,ENE,72,0.0,2.0,83,0.00,,BKN055,0.00,VWS V14.00,2013-07-12 13:21:00,
2013-07-12 09:30:00,70.9,64.8,30.06,East,79,0.0,2.0,81,0.00,,BKN055,0.00,VWS V14.00,2013-07-12 13:30:00,
2013-07-12 09:31:00,70.9,64.8,30.06,East,79,0.0,2.0,81,0.00,,BKN055,0.00,VWS V14.00,2013-07-12 13:31:00,
2013-07-12 09:40:00,71.6,64.4,30.05,ENE,65,3.0,6.0,78,0.00,,BKN055,0.00,VWS V14.00,2013-07-12 13:40:00,
2013-07-12 09:41:00,71.6,64.4,30.05,ENE,65,3.0,6.0,78,0.00,,BKN055,0.00,VWS V14.00,2013-07-12 13:41:00,
2013-07-12 09:50:00,71.7,65.6,30.05,ENE,78,0.0,6.0,81,0.00,,BKN055,0.00,VWS V14.00,2013-07-12 13:50:00,
2013-07-12 09:51:00,71.7,65.6,30.05,ENE,78,0.0,6.0,81,0.00,,BKN055,0.00,VWS V14.00,2013-07-12 13:51:00,
2013-07-12 10:00:00,72.3,64.3,30.06,East,80,1.0,7.0,76,0.00,,BKN055,0.00,VWS V14.00,2013-07-12 14:00:00,
2013-07-12 10:01:00,72.3,64.3,30.06,East,80,1.0,7.0,76,0.00,,BKN055,0.00,VWS V14.00,2013-07-12 14:01:00,
2013-07-12 10:10:00,72.9,63.8,30.06,NE,41,0.0,6.0,73,0.00,,BKN055,0.00,VWS V14.00,2013-07-12 14:10:00,
2013-07-12 10:11:00,72.9,63.8,30.06,NE,41,0.0,6.0,73,0.00,,BKN055,0.00,VWS V14.00,2013-07-12 14:11:00,
2013-07-12 10:20:00,72.9,64.1,30.05,East,87,0.0,6.0,74,0.00,,BKN055,0.00,VWS V14.00,2013-07-12 14:20:00,
2013-07-12 10:21:00,72.9,64.1,30.05,East,87,0.0,6.0,74,0.00,,BKN055,0.00,VWS V14.00,2013-07-12 14:21:00,
2013-07-12 10:30:00,73.3,64.5,30.05,ENE,57,2.0,5.0,74,0.00,,BKN055,0.00,VWS V14.00,2013-07-12 14:30:00,
2013-07-12 10:31:00,73.3,64.5,30.05,ENE,57,2.0,5.0,74,0.00,,BKN055,0.00,VWS V14.00,2013-07-12 14:31:00,
2013-07-12 10:40:00,73.6,64.0,30.05,ENE,63,5.0,6.0,72,0.00,,BKN055,0.00,VWS V14.00,2013-07-12 14:40:00,
2013-07-12 10:41:00,73.6,64.0,30.05,ENE,63,5.0,6.0,72,0.00,,BKN055,0.00,VWS V14.00,2013-07-12 14:41:00,
2013-07-12 10:50:00,73.9,64.3,30.05,NE,37,5.0,12.0,72,0.00,,BKN055,0.00,VWS V14.00,2013-07-12 14:50:00,
2013-07-12 10:51:00,73.9,64.3,30.05,NE,37,5.0,12.0,72,0.00,,BKN055,0.00,VWS V14.00,2013-07-12 14:51:00,
2013-07-12 11:00:00,74.3,64.3,30.05,ENE,60,0.0,8.0,71,0.00,,BKN055,0.00,VWS V14.00,2013-07-12 15:00:00,
2013-07-12 11:01:00,74.3,64.3,30.05,ENE,60,0.0,8.0,71,0.00,,BKN055,0.00,VWS V14.00,2013-07-12 15:01:00,
2013-07-12 11:10:00,74.7,65.1,30.05,ENE,73,0.0,9.0,72,0.00,,BKN055,0.00,VWS V14.00,2013-07-12 15:10:00,
2013-07-12 11:11:00,74.7,65.1,30.05,ENE,73,0.0,9.0,72,0.00,,BKN055,0.00,VWS V14.00,2013-07-12 15:11:00,
2013-07-12 11:20:00,75.3,66.4,30.05,NE,46,2.0,8.0,74,0.00,,BKN055,0.00,VWS V14.00,2013-07-12 15:20:00,
2013-07-12 11:21:00,75.3,66.4,30.05,NE,46,2.0,8.0,74,0.00,,BKN055,0.00,VWS V14.00,2013-07-12 15:21:00,
2013-07-12 11:30:00,75.6,65.9,30.05,ENE,78,4.0,10.0,72,0.00,,BKN055,0.00,VWS V14.00,2013-07-12 15:30:00,
2013-07-12 11:31:00,75.6,65.9,30.05,ENE,78,4.0,10.0,72,0.00,,BKN055,0.00,VWS V14.00,2013-07-12 15:31:00,
2013-07-12 11:40:00,76.0,65.1,30.05,NE,38,4.0,9.0,69,0.00,,BKN055,0.00,VWS V14.00,2013-07-12 15:40:00,
2013-07-12 11:41:00,76.0,65.1,30.05,NE,38,4.0,9.0,69,0.00,,BKN055,0.00,VWS V14.00,2013-07-12 15:41:00,
2013-07-12 11:50:00,75.8,65.7,30.05,ENE,64,4.0,8.0,71,0.00,,BKN055,0.00,VWS V14.00,2013-07-12 15:50:00,
2013-07-12 11:51:00,75.8,65.7,30.05,ENE,64,4.0,8.0,71,0.00,,BKN055,0.00,VWS V14.00,2013-07-12 15:51:00,
2013-07-12 12:00:00,75.6,64.3,30.05,NE,43,0.0,10.0,68,0.00,,BKN055,0.00,VWS V14.00,2013-07-12 16:00:00,
2013-07-12 12:01:00,75.6,64.3,30.05,NE,43,0.0,10.0,68,0.00,,BKN055,0.00,VWS V14.00,2013-07-12 16:01:00,
2013-07-12 12:10:00,76.3,65.0,30.05,ENE,64,0.0,12.0,68,0.00,,BKN055,0.00,VWS V14.00,2013-07-12 16:10:00,
2013-07-12 12:11:00,76.3,65.0,30.05,ENE,64,0.0,12.0,68,0.00,,BKN055,0.00,VWS V14.00,2013-07-12 16:11:00,
2013-07-12 12:20:00,76.2,66.5,30.05,NNW,334,4.0,8.0,72,0.00,,BKN055,0.00,VWS V14.00,2013-07-12 16:20:00,
2013-07-12 12:21:00,76.2,66.5,30.05,NNW,334,4.0,8.0,72,0.00,,BKN055,0.00,VWS V14.00,2013-07-12 16:21:00,
2013-07-12 12:30:00,76.7,65.3,30.04,NE,49,0.0,9.0,68,0.00,,BKN055,0.00,VWS V14.00,2013-07-12 16:30:00,
2013-07-12 12:31:00,76.7,65.3,30.04,NE,49,0.0,9.0,68,0.00,,BKN055,0.00,VWS V14.00,2013-07-12 16:31:00,
2013-07-12 12:40:00,77.3,64.2,30.04,NE,45,4.0,7.0,64,0.00,,BKN055,0.00,VWS V14.00,2013-07-12 16:40:00,
2013-07-12 12:41:00,77.3,64.2,30.04,NE,45,4.0,7.0,64,0.00,,BKN055,0.00,VWS V14.00,2013-07-12 16:41:00,
2013-07-12 12:50:00,77.1,64.9,30.03,North,349,2.0,8.0,66,0.00,,BKN055,0.00,VWS V14.00,2013-07-12 16:50:00,
2013-07-12 13:00:00,77.4,66.0,30.03,NE,43,0.0,9.0,68,0.00,,BKN055,0.00,VWS V14.00,2013-07-12 17:00:00,
2013-07-12 13:01:00,77.4,66.0,30.03,NE,43,0.0,9.0,68,0.00,,BKN055,0.00,VWS V14.00,2013-07-12 17:01:00,
2013-07-12 13:10:00,77.5,63.9,30.03,NNW,340,3.0,9.0,63,0.00,,BKN055,0.00,VWS V14.00,2013-07-12 17:10:00,
2013-07-12 13:11:00,77.5,63.9,30.03,NNW,340,3.0,9.0,63,0.00,,BKN055,0.00,VWS V14.00,2013-07-12 17:11:00,
2013-07-12 13:20:00,77.6,65.8,30.02,ENE,65,0.0,7.0,67,0.00,,BKN055,0.00,VWS V14.00,2013-07-12 17:20:00,
2013-07-12 13:21:00,77.6,65.8,30.02,ENE,65,0.0,7.0,67,0.00,,BKN055,0.00,VWS V14.00,2013-07-12 17:21:00,
2013-07-12 13:30:00,77.6,64.5,30.02,ENE,61,4.0,10.0,64,0.00,,BKN055,0.00,VWS V14.00,2013-07-12 17:30:00,
2013-07-12 13:31:00,77.6,64.5,30.02,ENE,61,4.0,10.0,64,0.00,,BKN055,0.00,VWS V14.00,2013-07-12 17:31:00,
2013-07-12 13:40:00,77.4,65.2,30.02,NNE,20,2.0,7.0,66,0.00,,BKN055,0.00,VWS V14.00,2013-07-12 17:40:00,
2013-07-12 13:41:00,77.4,65.2,30.02,NNE,20,2.0,7.0,66,0.00,,BKN055,0.00,VWS V14.00,2013-07-12 17:41:00,
2013-07-12 13:50:00,77.8,64.2,30.02,East,90,4.0,8.0,63,0.00,,BKN055,0.00,VWS V14.00,2013-07-12 17:50:00,
2013-07-12 14:00:00,78.3,66.4,30.02,East,87,5.0,6.0,67,0.00,,BKN055,0.00,VWS V14.00,2013-07-12 18:00:00,
2013-07-12 14:01:00,78.3,66.4,30.02,East,87,5.0,6.0,67,0.00,,BKN055,0.00,VWS V14.00,2013-07-12 18:01:00,
2013-07-12 14:10:00,77.4,65.2,30.02,North,355,4.0,6.0,66,0.00,,BKN055,0.00,VWS V14.00,2013-07-12 18:10:00,
2013-07-12 14:20:00,78.3,62.8,30.02,NE,49,2.0,10.0,59,0.00,,BKN055,0.00,VWS V14.00,2013-07-12 18:20:00,
2013-07-12 14:21:00,78.3,62.8,30.02,NE,49,2.0,10.0,59,0.00,,BKN055,0.00,VWS V14.00,2013-07-12 18:21:00,
2013-07-12 14:30:00,78.7,63.7,30.03,ENE,58,0.0,10.0,60,0.00,,BKN055,0.00,VWS V14.00,2013-07-12 18:30:00,
2013-07-12 14:40:00,79.2,64.1,30.03,North,355,3.0,7.0,60,0.00,,BKN055,0.00,VWS V14.00,2013-07-12 18:40:00,
2013-07-12 14:41:00,79.2,64.1,30.03,North,355,3.0,7.0,60,0.00,,BKN055,0.00,VWS V14.00,2013-07-12 18:41:00,
2013-07-12 14:50:00,78.8,65.6,30.02,NE,38,2.0,12.0,64,0.00,,BKN055,0.00,VWS V14.00,2013-07-12 18:50:00,
2013-07-12 14:51:00,78.8,65.6,30.02,NE,38,2.0,12.0,64,0.00,,BKN055,0.00,VWS V14.00,2013-07-12 18:51:00,
2013-07-12 15:00:00,78.7,64.6,30.03,NNE,15,6.0,7.0,62,0.00,,BKN055,0.00,VWS V14.00,2013-07-12 19:00:00,
2013-07-12 15:10:00,79.3,62.3,30.02,East,89,0.0,6.0,56,0.00,,BKN055,0.00,VWS V14.00,2013-07-12 19:10:00,
2013-07-12 15:11:00,79.3,62.3,30.02,East,89,0.0,6.0,56,0.00,,BKN055,0.00,VWS V14.00,2013-07-12 19:11:00,
2013-07-12 15:20:00,79.2,63.7,30.02,NE,55,0.0,9.0,59,0.00,,BKN055,0.00,VWS V14.00,2013-07-12 19:20:00,
2013-07-12 15:30:00,79.2,65.1,30.01,ENE,61,0.0,9.0,62,0.00,,BKN055,0.00,VWS V14.00,2013-07-12 19:30:00,
2013-07-12 15:31:00,79.2,65.1,30.01,ENE,61,0.0,9.0,62,0.00,,BKN055,0.00,VWS V14.00,2013-07-12 19:31:00,
2013-07-12 15:40:00,79.5,64.9,30.01,ENE,67,0.0,6.0,61,0.00,,BKN055,0.00,VWS V14.00,2013-07-12 19:40:00,
2013-07-12 15:41:00,79.5,64.9,30.01,ENE,67,0.0,6.0,61,0.00,,BKN055,0.00,VWS V14.00,2013-07-12 19:41:00,
2013-07-12 15:50:00,79.3,65.2,30.01,NW,304,4.0,9.0,62,0.00,,BKN055,0.00,VWS V14.00,2013-07-12 19:50:00,
2013-07-12 15:51:00,79.3,65.2,30.01,NW,304,4.0,9.0,62,0.00,,BKN055,0.00,VWS V14.00,2013-07-12 19:51:00,
2013-07-12 16:00:00,79.7,65.1,30.01,ENE,73,3.0,10.0,61,0.00,,BKN055,0.00,VWS V14.00,2013-07-12 20:00:00,
2013-07-12 16:01:00,79.7,65.1,30.01,ENE,73,3.0,10.0,61,0.00,,BKN055,0.00,VWS V14.00,2013-07-12 20:01:00,
2013-07-12 16:10:00,79.9,63.8,30.00,NE,46,3.0,7.0,58,0.00,,BKN055,0.00,VWS V14.00,2013-07-12 20:10:00,
2013-07-12 16:11:00,79.9,63.8,30.00,NE,46,3.0,7.0,58,0.00,,BKN055,0.00,VWS V14.00,2013-07-12 20:11:00,
2013-07-12 16:20:00,79.3,65.6,30.01,ENE,64,0.0,4.0,63,0.00,,BKN055,0.00,VWS V14.00,2013-07-12 20:20:00,
2013-07-12 16:21:00,79.3,65.6,30.01,ENE,64,0.0,4.0,63,0.00,,BKN055,0.00,VWS V14.00,2013-07-12 20:21:00,
2013-07-12 16:30:00,79.7,62.6,30.01,NE,52,0.0,10.0,56,0.00,,BKN055,0.00,VWS V14.00,2013-07-12 20:30:00,
2013-07-12 16:31:00,79.7,62.6,30.01,NE,52,0.0,10.0,56,0.00,,BKN055,0.00,VWS V14.00,2013-07-12 20:31:00,
2013-07-12 16:40:00,79.6,63.5,30.00,North,360,6.0,7.0,58,0.00,,BKN055,0.00,VWS V14.00,2013-07-12 20:40:00,
2013-07-12 16:41:00,79.6,63.5,30.00,North,360,6.0,7.0,58,0.00,,BKN055,0.00,VWS V14.00,2013-07-12 20:41:00,
2013-07-12 16:50:00,78.7,65.5,30.00,NNE,32,0.0,7.0,64,0.00,,BKN055,0.00,VWS V14.00,2013-07-12 20:50:00,
2013-07-12 16:51:00,78.7,65.5,30.00,NNE,32,0.0,7.0,64,0.00,,BKN055,0.00,VWS V14.00,2013-07-12 20:51:00,
2013-07-12 17:00:00,79.9,63.8,30.00,NNE,28,0.0,5.0,58,0.00,,BKN055,0.00,VWS V14.00,2013-07-12 21:00:00,
2013-07-12 17:01:00,79.9,63.8,30.00,NNE,28,0.0,5.0,58,0.00,,BKN055,0.00,VWS V14.00,2013-07-12 21:01:00,
2013-07-12 17:10:00,80.1,64.0,30.00,NNE,24,2.0,10.0,58,0.00,,BKN055,0.00,VWS V14.00,2013-07-12 21:10:00,
2013-07-12 17:11:00,80.1,64.0,30.00,NNE,24,2.0,10.0,58,0.00,,BKN055,0.00,VWS V14.00,2013-07-12 21:11:00,
2013-07-12 17:20:00,79.8,65.6,30.00,NE,34,0.0,7.0,62,0.00,,BKN055,0.00,VWS V14.00,2013-07-12 21:20:00,
2013-07-12 17:30:00,80.3,63.2,30.00,NNE,22,0.0,4.0,56,0.00,,BKN055,0.00,VWS V14.00,2013-07-12 21:30:00,
2013-07-12 17:31:00,80.3,63.2,30.00,NNE,22,0.0,4.0,56,0.00,,BKN055,0.00,VWS V14.00,2013-07-12 21:31:00,
2013-07-12 17:40:00,80.8,63.7,30.00,ENE,66,0.0,5.0,56,0.00,,BKN055,0.00,VWS V14.00,2013-07-12 21:40:00,
2013-07-12 17:50:00,80.7,63.6,29.99,NE,41,2.0,6.0,56,0.00,,BKN055,0.00,VWS V14.00,2013-07-12 21:50:00,
2013-07-12 17:51:00,80.7,63.6,29.99,NE,41,2.0,6.0,56,0.00,,BKN055,0.00,VWS V14.00,2013-07-12 21:51:00,
2013-07-12 18:00:00,79.7,63.1,29.99,ENE,74,3.0,6.0,57,0.00,,BKN055,0.00,VWS V14.00,2013-07-12 22:00:00,
2013-07-12 18:01:00,79.7,63.1,29.99,ENE,74,3.0,6.0,57,0.00,,BKN055,0.00,VWS V14.00,2013-07-12 22:01:00,
2013-07-12 18:10:00,79.6,65.0,29.99,NNE,33,0.0,4.0,61,0.00,,BKN055,0.00,VWS V14.00,2013-07-12 22:10:00,
2013-07-12 18:11:00,79.6,65.0,29.99,NNE,33,0.0,4.0,61,0.00,,BKN055,0.00,VWS V14.00,2013-07-12 22:11:00,
2013-07-12 18:20:00,79.4,65.7,29.99,North,360,0.0,5.0,63,0.00,,BKN055,0.00,VWS V14.00,2013-07-12 22:20:00,
2013-07-12 18:21:00,79.4,65.7,29.99,North,360,0.0,5.0,63,0.00,,BKN055,0.00,VWS V14.00,2013-07-12 22:21:00,
2013-07-12 18:30:00,79.5,65.8,29.99,NE,51,0.0,1.0,63,0.00,,BKN055,0.00,VWS V14.00,2013-07-12 22:30:00,
2013-07-12 18:31:00,79.5,65.8,29.99,NE,51,0.0,1.0,63,0.00,,BKN055,0.00,VWS V14.00,2013-07-12 22:31:00,
2013-07-12 18:40:00,79.9,64.8,29.99,ENE,65,0.0,4.0,60,0.00,,BKN055,0.00,VWS V14.00,2013-07-12 22:40:00,
2013-07-12 18:41:00,79.9,64.8,29.99,ENE,65,0.0,4.0,60,0.00,,BKN055,0.00,VWS V14.00,2013-07-12 22:41:00,
2013-07-12 18:50:00,79.8,65.2,29.99,NNE,32,0.0,5.0,61,0.00,,BKN055,0.00,VWS V14.00,2013-07-12 22:50:00,
2013-07-12 18:51:00,79.8,65.2,29.99,NNE,32,0.0,5.0,61,0.00,,BKN055,0.00,VWS V14.00,2013-07-12 22:51:00,
2013-07-12 19:00:00,79.9,64.8,29.99,NNE,28,3.0,6.0,60,0.00,,BKN055,0.00,VWS V14.00,2013-07-12 23:00:00,
2013-07-12 19:01:00,79.9,64.8,29.99,NNE,28,3.0,6.0,60,0.00,,BKN055,0.00,VWS V14.00,2013-07-12 23:01:00,
2013-07-12 19:10:00,79.5,64.9,29.99,NE,41,0.0,9.0,61,0.00,,BKN055,0.00,VWS V14.00,2013-07-12 23:10:00,
2013-07-12 19:11:00,79.5,64.9,29.99,NE,41,0.0,9.0,61,0.00,,BKN055,0.00,VWS V14.00,2013-07-12 23:11:00,
2013-07-12 19:20:00,79.5,64.9,29.99,NNW,346,2.0,6.0,61,0.00,,BKN055,0.00,VWS V14.00,2013-07-12 23:20:00,
2013-07-12 19:30:00,79.3,65.2,29.99,NNW,341,3.0,6.0,62,0.00,,BKN055,0.00,VWS V14.00,2013-07-12 23:30:00,
2013-07-12 19:40:00,78.7,65.1,30.00,NE,48,0.0,14.0,63,0.00,,BKN055,0.00,VWS V14.00,2013-07-12 23:40:00,
2013-07-12 19:41:00,78.7,65.1,30.00,NE,48,0.0,14.0,63,0.00,,BKN055,0.00,VWS V14.00,2013-07-12 23:41:00,
2013-07-12 19:50:00,78.5,64.9,30.00,North,5,3.0,3.0,63,0.00,,BKN055,0.00,VWS V14.00,2013-07-12 23:50:00,
2013-07-12 19:51:00,78.5,64.9,30.00,North,5,3.0,3.0,63,0.00,,BKN055,0.00,VWS V14.00,2013-07-12 23:51:00,
2013-07-12 20:00:00,77.9,65.2,29.99,North,360,0.0,5.0,65,0.00,,BKN055,0.00,VWS V14.00,2013-07-13 00:00:00,
2013-07-12 20:10:00,77.1,65.7,30.00,NNW,336,0.0,3.0,68,0.00,,BKN055,0.00,VWS V14.00,2013-07-13 00:10:00,
2013-07-12 20:11:00,77.1,65.7,30.00,NNW,336,0.0,3.0,68,0.00,,BKN055,0.00,VWS V14.00,2013-07-13 00:11:00,
2013-07-12 20:20:00,76.5,66.0,30.00,NNW,336,0.0,0.0,70,0.00,,BKN055,0.00,VWS V14.00,2013-07-13 00:20:00,
2013-07-12 20:21:00,76.5,66.0,30.00,NNW,336,0.0,0.0,70,0.00,,BKN055,0.00,VWS V14.00,2013-07-13 00:21:00,
2013-07-12 20:30:00,75.1,66.2,29.99,NNW,337,0.0,2.0,74,0.00,,BKN055,0.00,VWS V14.00,2013-07-13 00:30:00,
2013-07-12 20:31:00,75.1,66.2,29.99,NNW,337,0.0,2.0,74,0.00,,BKN055,0.00,VWS V14.00,2013-07-13 00:31:00,
2013-07-12 20:40:00,73.6,65.9,29.99,NNW,337,0.0,0.0,77,0.00,,BKN055,0.00,VWS V14.00,2013-07-13 00:40:00,
2013-07-12 20:41:00,73.6,65.9,29.99,NNW,337,0.0,0.0,77,0.00,,BKN055,0.00,VWS V14.00,2013-07-13 00:41:00,
2013-07-12 20:50:00,72.2,65.7,29.99,NNW,337,0.0,0.0,80,0.00,,BKN055,0.00,VWS V14.00,2013-07-13 00:50:00,
2013-07-12 20:51:00,72.2,65.7,29.99,NNW,337,0.0,0.0,80,0.00,,BKN055,0.00,VWS V14.00,2013-07-13 00:51:00,
2013-07-12 21:00:00,70.8,65.0,29.99,NNW,337,0.0,1.0,82,0.00,,BKN055,0.00,VWS V14.00,2013-07-13 01:00:00,
2013-07-12 21:10:00,70.1,65.1,29.99,West,281,0.0,2.0,84,0.00,,BKN055,0.00,VWS V14.00,2013-07-13 01:10:00,
2013-07-12 21:11:00,70.1,65.1,29.99,West,281,0.0,2.0,84,0.00,,BKN055,0.00,VWS V14.00,2013-07-13 01:11:00,
2013-07-12 21:20:00,69.4,64.7,29.99,NNW,333,2.0,4.0,85,0.00,,BKN055,0.00,VWS V14.00,2013-07-13 01:20:00,
2013-07-12 21:21:00,69.4,64.7,29.99,NNW,333,2.0,4.0,85,0.00,,BKN055,0.00,VWS V14.00,2013-07-13 01:21:00,
2013-07-12 21:30:00,68.8,64.4,30.00,NNW,336,0.0,5.0,86,0.00,,BKN055,0.00,VWS V14.00,2013-07-13 01:30:00,
2013-07-12 21:31:00,68.8,64.4,30.00,NNW,336,0.0,5.0,86,0.00,,BKN055,0.00,VWS V14.00,2013-07-13 01:31:00,
2013-07-12 21:40:00,68.5,64.5,30.00,NNW,346,0.0,4.0,87,0.00,,BKN055,0.00,VWS V14.00,2013-07-13 01:40:00,
2013-07-12 21:41:00,68.5,64.5,30.00,NNW,346,0.0,4.0,87,0.00,,BKN055,0.00,VWS V14.00,2013-07-13 01:41:00,
2013-07-12 21:50:00,68.2,64.2,30.00,NNW,337,0.0,2.0,87,0.00,,BKN055,0.00,VWS V14.00,2013-07-13 01:50:00,
2013-07-12 21:51:00,68.2,64.2,30.00,NNW,337,0.0,2.0,87,0.00,,BKN055,0.00,VWS V14.00,2013-07-13 01:51:00,
2013-07-12 22:00:00,68.0,64.0,30.01,NNW,340,0.0,0.0,87,0.00,,BKN055,0.00,VWS V14.00,2013-07-13 02:00:00,
2013-07-12 22:10:00,67.7,64.0,30.01,NNW,340,0.0,0.0,88,0.00,,BKN055,0.00,VWS V14.00,2013-07-13 02:10:00,
2013-07-12 22:11:00,67.7,64.0,30.01,NNW,340,0.0,0.0,88,0.00,,BKN055,0.00,VWS V14.00,2013-07-13 02:11:00,
2013-07-12 22:20:00,67.5,63.8,30.01,NNW,340,0.0,0.0,88,0.00,,BKN055,0.00,VWS V14.00,2013-07-13 02:20:00,
2013-07-12 22:21:00,67.5,63.8,30.01,NNW,340,0.0,0.0,88,0.00,,BKN055,0.00,VWS V14.00,2013-07-13 02:21:00,
2013-07-12 22:30:00,67.2,63.8,30.01,NNW,340,0.0,1.0,89,0.00,,BKN055,0.00,VWS V14.00,2013-07-13 02:30:00,
2013-07-12 22:31:00,67.2,63.8,30.01,NNW,340,0.0,1.0,89,0.00,,BKN055,0.00,VWS V14.00,2013-07-13 02:31:00,
2013-07-12 22:40:00,66.7,64.0,30.01,NNW,340,0.0,0.0,91,0.00,,BKN055,0.00,VWS V14.00,2013-07-13 02:40:00,
2013-07-12 22:41:00,66.7,64.0,30.01,NNW,340,0.0,0.0,91,0.00,,BKN055,0.00,VWS V14.00,2013-07-13 02:41:00,
2013-07-12 22:50:00,66.2,63.8,30.01,NNW,340,0.0,0.0,92,0.00,,BKN055,0.00,VWS V14.00,2013-07-13 02:50:00,
2013-07-12 22:51:00,66.2,63.8,30.01,NNW,340,0.0,0.0,92,0.00,,BKN055,0.00,VWS V14.00,2013-07-13 02:51:00,
2013-07-12 23:00:00,65.8,63.7,30.01,NNW,340,0.0,0.0,93,0.00,,BKN055,0.00,VWS V14.00,2013-07-13 03:00:00,
2013-07-12 23:01:00,65.8,63.7,30.01,NNW,340,0.0,0.0,93,0.00,,BKN055,0.00,VWS V14.00,2013-07-13 03:01:00,
2013-07-12 23:10:00,65.7,63.9,30.00,NNW,340,0.0,2.0,94,0.00,,BKN055,0.00,VWS V14.00,2013-07-13 03:10:00,
2013-07-12 23:11:00,65.7,63.9,30.00,NNW,340,0.0,2.0,94,0.00,,BKN055,0.00,VWS V14.00,2013-07-13 03:11:00,
2013-07-12 23:20:00,65.6,63.5,30.00,NNW,342,1.0,2.0,93,0.00,,BKN055,0.00,VWS V14.00,2013-07-13 03:20:00,
2013-07-12 23:21:00,65.6,63.5,30.00,NNW,342,1.0,2.0,93,0.00,,BKN055,0.00,VWS V14.00,2013-07-13 03:21:00,
2013-07-12 23:30:00,65.5,63.4,30.01,NNW,344,0.0,3.0,93,0.00,,BKN055,0.00,VWS V14.00,2013-07-13 03:30:00,
2013-07-12 23:40:00,65.3,63.2,30.01,NNW,344,0.0,2.0,93,0.00,,BKN055,0.00,VWS V14.00,2013-07-13 03:40:00,
2013-07-12 23:41:00,65.3,63.2,30.01,NNW,344,0.0,2.0,93,0.00,,BKN055,0.00,VWS V14.00,2013-07-13 03:41:00,
2013-07-12 23:50:00,65.2,63.1,30.01,NNW,336,0.0,3.0,93,0.00,,BKN055,0.00,VWS V14.00,2013-07-13 03:50:00,